Time;durP1;ratioP1;P1;durP2;ratioP2;P2;SDS_P1;SDS_P2;PMS_P1;PMS_P2;Temp;Humidity;BMP_temperature;BMP_pressure;BME280_temperature;BME280_humidity;BME280_pressure;Samples;Min_cycle;Max_cycle;Signal;HPM_P1;HPM_P2
2022/01/09 00:00:54;;;;;;;;;4.00;1.33;;;;;9.19;59.79;99520.47;5043613;28;46417;-85
2022/01/09 00:03:20;;;;;;;;;1.67;0.67;;;;;9.17;59.41;99519.84;5055761;28;45565;-79
2022/01/09 00:05:45;;;;;;;;;1.00;1.00;;;;;9.17;59.89;99540.91;5044546;28;45747;-80
2022/01/09 00:08:11;;;;;;;;;2.00;0.33;;;;;9.09;59.78;99528.41;5036055;28;45553;-85
2022/01/09 00:10:37;;;;;;;;;2.00;2.00;;;;;9.06;59.98;99528.03;5056076;28;45758;-77
2022/01/09 00:13:03;;;;;;;;;2.33;1.00;;;;;9.10;59.96;99537.44;5056072;28;45934;-80
2022/01/09 00:15:28;;;;;;;;;3.00;0.33;;;;;8.95;59.83;99530.47;5055855;28;45600;-79
2022/01/09 00:17:54;;;;;;;;;2.00;1.67;;;;;8.97;59.57;99555.66;5056931;28;46504;-84
2022/01/09 00:20:19;;;;;;;;;3.00;1.00;;;;;8.92;60.27;99549.19;5055254;28;45590;-83
2022/01/09 00:22:48;;;;;;;;;5.00;2.00;;;;;8.80;60.29;99540.91;5058117;28;45334;-81
2022/01/09 00:25:15;;;;;;;;;3.00;2.00;;;;;8.88;60.15;99570.72;5052736;28;45398;-84
2022/01/09 00:27:41;;;;;;;;;3.67;1.67;;;;;8.81;60.42;99586.34;5042735;28;45879;-85
2022/01/09 00:30:10;;;;;;;;;3.00;1.67;;;;;8.75;60.82;99582.59;5057027;28;45740;-80
2022/01/09 00:32:36;;;;;;;;;3.33;1.33;;;;;8.70;60.88;99581.59;5055037;28;45670;-80
2022/01/09 00:35:03;;;;;;;;;1.33;1.00;;;;;8.69;61.17;99590.88;5057324;28;44802;-83
2022/01/09 00:37:29;;;;;;;;;2.33;1.00;;;;;8.62;60.96;99610.91;5037181;28;47186;-80
2022/01/09 00:39:54;;;;;;;;;5.00;3.00;;;;;8.55;61.62;99604.66;5034268;28;47201;-84
2022/01/09 00:42:20;;;;;;;;;6.33;3.00;;;;;8.53;61.78;99601.31;5059674;28;45406;-77
2022/01/09 00:44:45;;;;;;;;;3.67;2.67;;;;;8.56;62.38;99624.63;5052523;28;45444;-79
2022/01/09 00:47:11;;;;;;;;;2.67;2.67;;;;;8.41;61.95;99603.06;5047420;28;46103;-80
2022/01/09 00:49:37;;;;;;;;;1.67;1.67;;;;;8.57;61.80;99635.34;5052131;28;45739;-79
2022/01/09 00:52:03;;;;;;;;;4.33;2.33;;;;;8.41;61.95;99628.50;5057275;28;45305;-77
2022/01/09 00:54:28;;;;;;;;;1.00;1.00;;;;;8.49;61.85;99638.34;5054899;28;45699;-79
2022/01/09 00:56:54;;;;;;;;;1.67;1.67;;;;;8.42;61.29;99643.81;5034911;28;46327;-79
2022/01/09 00:59:19;;;;;;;;;2.00;1.33;;;;;8.38;61.03;99641.75;5055173;28;45726;-79
2022/01/09 01:01:45;;;;;;;;;4.67;1.67;;;;;8.34;61.47;99654.19;5053730;28;45706;-80
2022/01/09 01:04:10;;;;;;;;;2.00;1.00;;;;;8.38;61.45;99669.09;5054003;28;45592;-81
2022/01/09 01:06:36;;;;;;;;;6.00;2.00;;;;;8.37;61.31;99681.91;5054191;28;45607;-85
2022/01/09 01:09:02;;;;;;;;;4.00;3.00;;;;;8.36;61.14;99685.69;5037516;28;47018;-80
2022/01/09 01:11:28;;;;;;;;;4.67;2.00;;;;;8.24;60.88;99688.28;5037913;28;45760;-80
2022/01/09 01:13:53;;;;;;;;;3.33;1.00;;;;;8.31;60.42;99705.47;5026174;28;47490;-84
2022/01/09 01:16:18;;;;;;;;;1.67;1.67;;;;;8.35;59.96;99705.03;5052402;28;45761;-80
2022/01/09 01:18:45;;;;;;;;;0.67;0.67;;;;;8.34;60.14;99706.09;5054564;28;45610;-85
2022/01/09 01:21:12;;;;;;;;;2.00;1.00;;;;;8.35;60.17;99715.97;5050577;28;45808;-85
2022/01/09 01:23:37;;;;;;;;;3.33;2.00;;;;;8.15;60.08;99700.53;5032784;28;45425;-86
2022/01/09 01:26:03;;;;;;;;;3.33;2.33;;;;;8.30;60.37;99733.03;5014807;28;46442;-85
2022/01/09 01:28:30;;;;;;;;;3.67;2.00;;;;;8.25;60.47;99722.75;5048969;28;45703;-85
2022/01/09 01:30:56;;;;;;;;;6.33;0.67;;;;;8.22;60.08;99734.13;5053501;28;45721;-84
2022/01/09 01:33:22;;;;;;;;;1.33;1.33;;;;;8.29;60.83;99758.66;5056355;28;45310;-85
2022/01/09 01:35:48;;;;;;;;;1.67;0.33;;;;;8.30;60.24;99765.81;5045254;28;46390;-84
2022/01/09 01:38:13;;;;;;;;;1.00;1.00;;;;;8.34;60.63;99771.66;5032969;28;45413;-84
2022/01/09 01:40:40;;;;;;;;;3.00;1.00;;;;;8.40;60.61;99779.00;5042902;28;45472;-84
2022/01/09 01:43:10;;;;;;;;;1.67;1.00;;;;;8.39;60.70;99780.88;5053339;28;45566;-82
2022/01/09 01:45:35;;;;;;;;;2.67;1.00;;;;;8.39;61.38;99788.25;5041074;28;45348;-83
2022/01/09 01:48:06;;;;;;;;;3.33;1.00;;;;;8.45;62.66;99803.78;5050990;28;45335;-78
2022/01/09 01:50:37;;;;;;;;;2.00;1.00;;;;;8.42;63.46;99821.41;5041233;28;45804;-79
2022/01/09 01:53:10;;;;;;;;;0.33;0.00;;;;;8.40;64.15;99803.59;5032004;28;45929;-77
2022/01/09 01:55:37;;;;;;;;;4.67;0.33;;;;;8.32;63.82;99815.56;5042646;28;45841;-83
2022/01/09 01:58:05;;;;;;;;;1.67;1.67;;;;;8.33;63.94;99810.97;5055491;28;45793;-79
2022/01/09 02:00:31;;;;;;;;;2.00;1.00;;;;;8.31;64.36;99812.03;5060143;28;45958;-79
2022/01/09 02:02:57;;;;;;;;;0.00;0.00;;;;;8.27;64.60;99823.59;5057114;28;45345;-83
2022/01/09 02:05:22;;;;;;;;;3.33;1.00;;;;;8.18;64.56;99808.53;5046952;28;45799;-78
2022/01/09 02:07:51;;;;;;;;;3.00;2.00;;;;;8.22;64.43;99826.97;5059695;28;45532;-80
2022/01/09 02:10:17;;;;;;;;;2.00;2.00;;;;;8.18;64.91;99827.63;5033982;28;45376;-80
2022/01/09 02:12:43;;;;;;;;;1.33;1.00;;;;;8.11;64.54;99814.84;5056997;28;45945;-85
2022/01/09 02:15:42;;;;;;;;;3.00;1.67;;;;;8.14;64.95;99849.06;5067382;28;45753;-85
2022/01/09 02:18:09;;;;;;;;;1.00;1.00;;;;;8.16;65.00;99863.34;5046448;28;47771;-80
2022/01/09 02:20:36;;;;;;;;;2.00;1.00;;;;;8.21;64.40;99849.88;5060793;28;45759;-79
2022/01/09 02:23:03;;;;;;;;;2.33;0.00;;;;;8.17;64.47;99851.34;5064967;28;45428;-85
2022/01/09 02:25:29;;;;;;;;;2.00;0.33;;;;;8.25;63.83;99855.78;5063442;28;45976;-84
2022/01/09 02:27:56;;;;;;;;;2.00;0.67;;;;;8.22;63.53;99854.31;5062410;28;47108;-83
2022/01/09 02:30:21;;;;;;;;;1.00;0.33;;;;;8.29;63.63;99855.13;5061730;28;45595;-80
2022/01/09 02:32:59;;;;;;;;;1.67;0.00;;;;;8.34;62.27;99848.16;5063538;28;45541;-78
2022/01/09 02:35:25;;;;;;;;;1.00;0.00;;;;;8.27;62.00;99846.28;5059797;28;47138;-79
2022/01/09 02:37:51;;;;;;;;;0.00;0.00;;;;;8.19;62.77;99852.00;5042741;28;47100;-79
2022/01/09 02:40:16;;;;;;;;;1.00;1.00;;;;;8.23;62.36;99882.44;5061624;28;45382;-78
2022/01/09 02:42:42;;;;;;;;;1.00;0.00;;;;;8.23;62.65;99880.56;5061830;28;45382;-78
2022/01/09 02:45:08;;;;;;;;;1.00;0.00;;;;;8.21;61.67;99882.66;5060860;28;45378;-78
2022/01/09 02:47:34;;;;;;;;;2.00;0.00;;;;;8.15;62.16;99866.31;5060181;28;45450;-78
2022/01/09 02:50:12;;;;;;;;;0.00;0.00;;;;;8.22;61.92;99873.41;5047242;28;45432;-78
2022/01/09 02:52:49;;;;;;;;;5.00;1.00;;;;;8.18;62.27;99874.91;5062323;28;45811;-83
2022/01/09 02:55:16;;;;;;;;;2.00;1.00;;;;;8.18;61.48;99880.34;5047277;28;47380;-82
2022/01/09 02:57:46;;;;;;;;;1.00;0.00;;;;;8.12;61.90;99881.22;5066382;28;45788;-83
2022/01/09 03:00:19;;;;;;;;;1.33;0.67;;;;;8.10;62.24;99897.00;5059962;28;45791;-76
2022/01/09 03:02:44;;;;;;;;;0.33;0.33;;;;;8.05;62.45;99894.03;5062932;28;45466;-80
2022/01/09 03:05:11;;;;;;;;;0.00;0.00;;;;;8.02;62.65;99891.75;5062355;28;45449;-82
2022/01/09 03:07:38;;;;;;;;;0.00;0.00;;;;;7.99;62.88;99893.00;5060877;28;45939;-79
2022/01/09 03:10:05;;;;;;;;;1.33;0.00;;;;;7.99;62.91;99890.28;5059686;28;45481;-83
2022/01/09 03:12:30;;;;;;;;;2.00;0.00;;;;;7.94;62.60;99881.88;5043694;28;45373;-83
2022/01/09 03:14:56;;;;;;;;;1.00;1.00;;;;;7.99;62.58;99912.13;5045028;28;45648;-84
2022/01/09 03:17:21;;;;;;;;;0.33;0.33;;;;;8.01;63.27;99917.34;5061639;28;45617;-85
2022/01/09 03:19:47;;;;;;;;;1.00;1.00;;;;;8.02;62.73;99911.69;5058920;28;45621;-83
2022/01/09 03:22:13;;;;;;;;;2.00;1.00;;;;;8.03;62.54;99904.34;5059852;28;45447;-85
2022/01/09 03:24:38;;;;;;;;;2.00;1.00;;;;;8.07;63.06;99911.91;5062850;28;45443;-83
2022/01/09 03:27:04;;;;;;;;;1.00;1.00;;;;;8.10;61.77;99908.75;5057188;28;47075;-77
2022/01/09 03:29:30;;;;;;;;;1.00;1.00;;;;;8.11;62.09;99910.44;5037978;28;45481;-77
2022/01/09 03:31:55;;;;;;;;;2.33;0.00;;;;;8.18;62.38;99931.41;5059266;28;45914;-76
2022/01/09 03:34:21;;;;;;;;;1.33;1.33;;;;;8.19;62.05;99942.13;5054655;28;45996;-80
2022/01/09 03:36:46;;;;;;;;;1.00;0.00;;;;;8.19;62.62;99954.94;5039559;28;47064;-76
2022/01/09 03:39:14;;;;;;;;;1.00;1.00;;;;;8.16;63.32;99967.13;5056965;28;45736;-77
2022/01/09 03:41:40;;;;;;;;;2.00;1.00;;;;;8.21;63.20;99969.22;5059166;28;45304;-81
2022/01/09 03:44:05;;;;;;;;;2.00;0.00;;;;;8.18;62.65;99967.75;5059900;28;45500;-83
2022/01/09 03:46:31;;;;;;;;;0.33;0.33;;;;;8.14;64.44;99958.31;5055417;28;47023;-77
2022/01/09 03:48:56;;;;;;;;;0.00;0.00;;;;;8.16;64.77;99966.28;5057082;28;45738;-77
2022/01/09 03:51:25;;;;;;;;;3.00;0.00;;;;;8.08;64.84;99953.69;5065039;28;45872;-81
2022/01/09 03:53:51;;;;;;;;;0.00;0.00;;;;;8.05;64.52;99960.41;5071491;28;46882;-81
2022/01/09 03:56:17;;;;;;;;;2.00;0.00;;;;;8.00;65.50;99943.00;5061992;28;45826;-76
2022/01/09 03:58:42;;;;;;;;;0.00;0.00;;;;;7.97;64.81;99948.88;5058976;28;45412;-82
2022/01/09 04:01:08;;;;;;;;;0.67;0.00;;;;;7.88;64.69;99946.38;5061625;28;45636;-81
2022/01/09 04:03:35;;;;;;;;;1.33;0.00;;;;;7.86;64.76;99937.56;5057035;28;46048;-78
2022/01/09 04:06:01;;;;;;;;;0.00;0.00;;;;;7.77;63.74;99942.38;5062666;28;45723;-80
2022/01/09 04:08:27;;;;;;;;;0.00;0.00;;;;;7.67;64.42;99935.69;5064511;28;45287;-81
2022/01/09 04:10:53;;;;;;;;;0.00;0.00;;;;;7.61;65.13;99940.06;5037839;28;45352;-82
2022/01/09 04:13:18;;;;;;;;;0.67;0.67;;;;;7.56;65.24;99932.53;5024677;28;45951;-83
2022/01/09 04:15:47;;;;;;;;;1.00;0.00;;;;;7.50;65.21;99935.22;5045878;28;46012;-77
2022/01/09 04:18:21;;;;;;;;;2.00;1.00;;;;;7.45;65.52;99938.59;5055176;28;45406;-78
2022/01/09 04:20:48;;;;;;;;;0.00;0.00;;;;;7.41;65.13;99953.72;5055699;28;45587;-76
2022/01/09 04:23:14;;;;;;;;;4.33;0.67;;;;;7.37;65.72;99958.72;5042085;28;47331;-82
2022/01/09 04:25:40;;;;;;;;;1.00;0.00;;;;;7.25;65.93;99953.03;5038702;28;46882;-82
2022/01/09 04:28:06;;;;;;;;;1.67;1.00;;;;;7.30;66.19;99957.03;5036266;28;45751;-77
2022/01/09 04:30:32;;;;;;;;;1.00;1.00;;;;;7.36;65.69;99950.75;5036911;28;45825;-77
2022/01/09 04:32:58;;;;;;;;;2.67;2.00;;;;;7.39;66.26;99950.34;5038555;28;45526;-84
2022/01/09 04:35:23;;;;;;;;;1.67;0.00;;;;;7.41;65.85;99950.97;5037194;28;45486;-79
2022/01/09 04:37:49;;;;;;;;;1.67;1.67;;;;;7.46;66.38;99953.91;5035999;28;45905;-78
2022/01/09 04:40:17;;;;;;;;;1.00;1.00;;;;;7.48;65.64;99960.00;5038419;28;45435;-84
2022/01/09 04:42:50;;;;;;;;;1.00;1.00;;;;;7.52;65.30;99955.81;5037156;28;46507;-82
2022/01/09 04:45:17;;;;;;;;;0.00;0.00;;;;;7.58;65.28;99967.78;5017599;28;47336;-83
2022/01/09 04:47:47;;;;;;;;;1.00;1.00;;;;;7.62;65.96;99971.78;5039330;28;45778;-84
2022/01/09 04:50:21;;;;;;;;;2.67;0.00;;;;;7.52;65.72;99950.34;5040879;28;45403;-83
2022/01/09 04:52:50;;;;;;;;;0.33;0.00;;;;;7.43;65.61;99933.34;5022597;28;46218;-84
2022/01/09 04:55:15;;;;;;;;;1.00;0.33;;;;;7.50;65.37;99962.50;5017601;28;47029;-74
2022/01/09 04:57:41;;;;;;;;;1.33;0.00;;;;;7.53;66.06;99968.41;5036061;28;45401;-88
2022/01/09 05:00:08;;;;;;;;;0.33;0.33;;;;;7.57;66.95;99968.81;5041609;28;45788;-89
2022/01/09 05:02:46;;;;;;;;;3.00;0.00;;;;;7.59;65.29;99962.13;5044873;28;45475;-88
2022/01/09 05:05:23;;;;;;;;;1.00;1.00;;;;;7.40;66.04;99931.03;5023819;28;47163;-86
2022/01/09 05:08:07;;;;;;;;;;;;;;;;;;;;;
2022/01/09 05:10:33;;;;;;;;;2.00;0.00;;;;;7.47;66.00;99941.97;5036322;28;69184;-81
2022/01/09 05:12:59;;;;;;;;;1.00;1.00;;;;;7.60;65.50;99946.56;5038548;28;45926;-81
2022/01/09 05:22:41;;;;;;;;;1.00;0.67;;;;;7.80;65.20;99962.09;4955499;28;45791;-82
2022/01/09 05:28:24;;;;;;;;;0.00;0.00;;;;;7.53;64.46;99896.59;5057035;28;45714;-86
2022/01/09 05:31:42;;;;;;;;;2.00;0.00;;;;;7.53;64.30;99897.47;5045692;28;45352;-85
2022/01/09 05:34:28;;;;;;;;;0.00;0.00;;;;;8.01;64.37;99952.84;4955542;28;45660;-84
2022/01/09 05:36:54;;;;;;;;;1.00;0.00;;;;;8.06;64.34;99967.56;4981189;28;45488;-80
2022/01/09 05:39:19;;;;;;;;;2.00;1.00;;;;;8.02;63.73;99949.09;5057910;28;45815;-82
2022/01/09 05:41:46;;;;;;;;;1.00;0.00;;;;;8.05;64.51;99948.66;5062809;28;45844;-81
2022/01/09 05:44:11;;;;;;;;;1.00;0.00;;;;;8.15;63.87;99979.09;5061191;28;45558;-82
2022/01/09 05:46:37;;;;;;;;;1.00;1.00;;;;;8.17;63.51;100006.22;5054582;28;45604;-76
2022/01/09 05:49:03;;;;;;;;;2.67;2.67;;;;;8.10;63.85;99978.91;5057602;28;45724;-83
2022/01/09 05:51:29;;;;;;;;;1.00;1.00;;;;;8.00;64.10;99975.78;5052012;28;45366;-83
2022/01/09 05:53:56;;;;;;;;;1.00;1.00;;;;;8.08;64.49;99997.38;5057197;28;45733;-82
2022/01/09 05:56:22;;;;;;;;;3.67;2.00;;;;;8.08;64.02;99983.72;5058731;28;45457;-81
2022/01/09 05:58:47;;;;;;;;;4.00;2.00;;;;;8.08;64.26;99991.94;5034843;28;46555;-83
2022/01/09 06:01:13;;;;;;;;;3.33;2.00;;;;;8.02;64.94;99968.19;5046034;28;45455;-85
2022/01/09 06:03:38;;;;;;;;;3.00;0.00;;;;;8.06;64.96;99981.22;5046712;28;44930;-78
2022/01/09 06:06:04;;;;;;;;;2.00;1.00;;;;;8.12;64.48;99976.81;5052453;28;45493;-79
2022/01/09 06:08:29;;;;;;;;;2.00;1.00;;;;;8.14;65.08;99969.22;5051917;28;45699;-79
2022/01/09 06:10:55;;;;;;;;;3.00;1.00;;;;;8.12;64.16;99974.06;5050849;28;45290;-82
2022/01/09 06:13:20;;;;;;;;;2.67;1.33;;;;;8.15;64.18;99975.53;5052506;28;45366;-80
2022/01/09 06:15:46;;;;;;;;;2.00;1.00;;;;;8.13;64.24;99978.50;5049354;28;45667;-78
2022/01/09 06:18:14;;;;;;;;;2.33;1.00;;;;;8.15;64.96;99983.75;5045414;28;45845;-74
2022/01/09 06:20:40;;;;;;;;;3.33;2.00;;;;;8.12;65.21;99993.19;5045952;28;45606;-72
2022/01/09 06:23:06;;;;;;;;;4.00;1.00;;;;;8.10;64.67;99982.47;5026686;28;45781;-76
2022/01/09 06:25:31;;;;;;;;;2.00;1.00;;;;;8.17;64.58;99993.38;5045707;28;45531;-76
2022/01/09 06:27:58;;;;;;;;;2.00;0.00;;;;;8.15;64.03;99994.66;5030471;28;46034;-75
2022/01/09 06:30:23;;;;;;;;;3.00;1.00;;;;;8.15;64.10;99986.47;5023750;28;45637;-76
2022/01/09 06:32:49;;;;;;;;;0.67;0.67;;;;;8.17;64.29;99990.66;5046728;28;45933;-74
2022/01/09 06:35:14;;;;;;;;;2.67;0.00;;;;;8.17;64.70;99990.66;5045986;28;46145;-75
2022/01/09 06:37:40;;;;;;;;;4.67;1.00;;;;;8.16;64.51;99993.59;5044145;28;46457;-73
2022/01/09 06:40:06;;;;;;;;;3.00;1.00;;;;;8.15;64.49;100009.16;5043469;28;45960;-74
2022/01/09 06:42:32;;;;;;;;;2.67;1.00;;;;;8.15;64.28;100006.41;5047729;28;45482;-75
2022/01/09 06:44:57;;;;;;;;;3.50;1.50;;;;;8.16;64.79;100010.84;5045936;28;45890;-76
2022/01/09 06:47:22;;;;;;;;;2.33;0.33;;;;;8.20;63.91;100013.97;5049364;28;46168;-75
2022/01/09 06:49:48;;;;;;;;;3.00;0.67;;;;;8.17;64.03;100009.78;5052007;28;45580;-75
2022/01/09 06:52:13;;;;;;;;;1.67;0.67;;;;;8.13;63.63;99992.97;5048907;28;45663;-75
2022/01/09 06:54:39;;;;;;;;;0.00;0.00;;;;;8.16;64.05;100009.97;5029065;28;46941;-74
2022/01/09 06:57:05;;;;;;;;;0.00;0.00;;;;;8.15;64.14;100008.31;5051438;28;45789;-77
2022/01/09 06:59:31;;;;;;;;;0.00;0.00;;;;;8.19;64.13;99999.50;5048700;28;45955;-75
2022/01/09 07:01:56;;;;;;;;;1.00;0.00;;;;;8.19;63.95;99998.63;5049208;28;45909;-80
2022/01/09 07:04:22;;;;;;;;;0.00;0.00;;;;;8.19;64.85;99998.63;5056191;28;45809;-81
2022/01/09 07:06:48;;;;;;;;;1.33;0.00;;;;;8.20;64.65;100006.63;5057832;28;46175;-82
2022/01/09 07:09:13;;;;;;;;;0.00;0.00;;;;;8.17;64.25;99996.13;5061071;28;45662;-80
2022/01/09 07:11:39;;;;;;;;;0.00;0.00;;;;;8.21;64.75;100008.31;5042428;28;45756;-80
2022/01/09 07:14:05;;;;;;;;;0.00;0.00;;;;;8.19;63.91;100004.94;5050645;28;45948;-76
2022/01/09 07:16:30;;;;;;;;;0.00;0.00;;;;;8.23;63.95;100003.50;5040466;28;45895;-75
2022/01/09 07:18:56;;;;;;;;;0.67;0.00;;;;;8.19;63.13;99999.50;5049509;28;45992;-74
2022/01/09 07:21:21;;;;;;;;;1.00;0.00;;;;;8.22;63.44;99998.22;5048336;28;45536;-73
2022/01/09 07:23:47;;;;;;;;;2.00;0.00;;;;;8.19;63.59;99998.63;5034630;28;46256;-73
2022/01/09 07:26:12;;;;;;;;;6.00;2.00;;;;;8.19;64.82;100002.22;5040075;28;47458;-75
2022/01/09 07:28:38;;;;;;;;;1.67;1.00;;;;;8.19;65.07;100009.56;5066038;28;46127;-81
2022/01/09 07:31:03;;;;;;;;;0.00;0.00;;;;;8.19;64.75;100015.88;5057856;28;45409;-80
2022/01/09 07:33:30;;;;;;;;;2.00;1.33;;;;;8.23;64.88;100013.56;5050534;28;46583;-80
2022/01/09 07:35:56;;;;;;;;;4.00;3.33;;;;;8.21;64.98;100005.56;5060091;28;45747;-82
2022/01/09 07:38:22;;;;;;;;;0.00;0.00;;;;;8.20;64.76;100006.63;5059390;28;45457;-80
2022/01/09 07:40:47;;;;;;;;;0.00;0.00;;;;;8.16;64.94;99994.47;5054600;28;45833;-80
2022/01/09 07:43:13;;;;;;;;;0.67;0.00;;;;;8.18;65.22;100007.91;5040203;28;45845;-84
2022/01/09 07:45:39;;;;;;;;;5.00;1.33;;;;;8.13;65.04;100005.81;5059797;28;45513;-81
2022/01/09 07:48:06;;;;;;;;;1.67;1.00;;;;;8.09;65.54;100012.72;5056645;28;47251;-82
2022/01/09 07:50:32;;;;;;;;;1.00;1.00;;;;;8.09;65.15;100015.47;5055198;28;45765;-82
2022/01/09 07:52:58;;;;;;;;;2.00;0.00;;;;;8.12;65.50;100020.50;5038274;28;45906;-81
2022/01/09 07:55:23;;;;;;;;;2.33;0.67;;;;;8.11;65.85;100011.47;5056710;28;46439;-83
2022/01/09 07:57:51;;;;;;;;;0.00;0.00;;;;;8.06;65.50;100010.44;5054314;28;45481;-82
2022/01/09 08:00:19;;;;;;;;;1.00;0.00;;;;;8.04;65.41;100004.31;5052966;28;45423;-81
2022/01/09 08:02:45;;;;;;;;;0.00;0.00;;;;;8.02;65.06;100017.34;5049673;28;46360;-79
2022/01/09 08:05:13;;;;;;;;;0.67;0.33;;;;;7.97;65.23;99998.88;5055409;28;45755;-81
2022/01/09 08:07:40;;;;;;;;;0.67;0.00;;;;;7.94;65.10;100008.31;5055652;28;45861;-82
2022/01/09 08:10:07;;;;;;;;;1.67;1.00;;;;;7.87;64.91;100007.47;5042070;28;45431;-82
2022/01/09 08:12:32;;;;;;;;;1.00;0.33;;;;;7.88;64.42;100009.16;5057481;28;45859;-81
2022/01/09 08:14:57;;;;;;;;;1.00;1.00;;;;;7.85;64.94;100015.03;5053505;28;46971;-72
2022/01/09 08:17:23;;;;;;;;;0.00;0.00;;;;;7.86;65.03;100019.47;5057226;28;45499;-81
2022/01/09 08:19:49;;;;;;;;;0.67;0.00;;;;;7.88;64.88;100025.53;5054368;28;45471;-76
2022/01/09 08:22:14;;;;;;;;;1.00;1.00;;;;;7.88;65.03;100025.53;5054863;28;45774;-79
2022/01/09 08:24:40;;;;;;;;;0.00;0.00;;;;;7.86;64.97;100011.25;5037265;28;46804;-76
2022/01/09 08:27:07;;;;;;;;;11.67;9.67;;;;;7.87;64.35;100012.94;5034136;28;45386;-75
2022/01/09 08:29:33;;;;;;;;;2.00;1.00;;;;;7.91;64.61;100010.63;5054031;28;45794;-78
2022/01/09 08:31:58;;;;;;;;;1.00;1.00;;;;;7.92;64.89;100004.13;5053815;28;45371;-81
2022/01/09 08:34:24;;;;;;;;;0.33;0.00;;;;;7.95;64.05;100015.47;5054307;28;46602;-78
2022/01/09 08:36:49;;;;;;;;;3.33;3.33;;;;;7.95;64.02;100010.00;5055336;28;45969;-79
2022/01/09 08:39:14;;;;;;;;;1.00;1.00;;;;;8.01;64.13;100015.66;5055409;28;45808;-80
2022/01/09 08:41:40;;;;;;;;;1.33;0.00;;;;;8.08;63.77;100011.03;5020498;28;46411;-80
2022/01/09 08:44:07;;;;;;;;;0.00;0.00;;;;;8.12;63.68;100021.34;5033339;28;45484;-81
2022/01/09 08:46:36;;;;;;;;;0.00;0.00;;;;;8.21;63.92;100016.50;5056706;28;45726;-81
2022/01/09 08:49:03;;;;;;;;;1.00;0.00;;;;;8.31;63.86;100013.34;5051963;28;45403;-80
2022/01/09 08:51:29;;;;;;;;;2.33;0.00;;;;;8.48;62.92;100025.53;5053027;28;45629;-79
2022/01/09 08:53:56;;;;;;;;;1.67;0.67;;;;;8.60;62.72;100016.69;5052915;28;45499;-80
2022/01/09 08:56:23;;;;;;;;;1.67;1.00;;;;;8.63;62.79;100021.72;5050126;28;45924;-79
2022/01/09 08:58:49;;;;;;;;;4.00;0.00;;;;;8.68;62.55;100032.84;5055714;28;45829;-79
2022/01/09 09:01:16;;;;;;;;;1.33;1.33;;;;;8.72;62.99;100047.75;5036447;28;46022;-82
2022/01/09 09:03:42;;;;;;;;;0.00;0.00;;;;;8.75;63.06;100051.97;5036573;28;48641;-81
2022/01/09 09:06:10;;;;;;;;;0.00;0.00;;;;;8.84;62.40;100061.63;5057511;28;45688;-80
2022/01/09 09:08:36;;;;;;;;;0.67;0.00;;;;;8.83;62.90;100059.94;5058840;28;45425;-79
2022/01/09 09:11:02;;;;;;;;;3.00;1.00;;;;;8.87;62.87;100054.88;5046128;28;46273;-79
2022/01/09 09:13:27;;;;;;;;;2.00;1.00;;;;;8.93;63.27;100065.78;5056133;28;46106;-79
2022/01/09 09:15:53;;;;;;;;;5.00;3.00;;;;;8.98;62.77;100074.22;5061433;28;45276;-82
2022/01/09 09:18:18;;;;;;;;;4.67;3.00;;;;;9.02;62.47;100071.88;5031150;28;44954;-81
2022/01/09 09:20:44;;;;;;;;;9.33;7.67;;;;;9.04;61.90;100080.69;5056084;28;45817;-81
2022/01/09 09:23:10;;;;;;;;;3.00;2.00;;;;;8.96;62.23;100064.53;5056280;28;46347;-81
2022/01/09 09:25:42;;;;;;;;;3.00;3.00;;;;;8.99;62.41;100086.81;5042993;28;45430;-81
2022/01/09 09:28:07;;;;;;;;;2.00;2.00;;;;;8.89;62.67;100082.84;5038557;28;45715;-82
2022/01/09 09:30:33;;;;;;;;;3.67;2.67;;;;;8.92;63.05;100086.00;5049014;28;45968;-81
2022/01/09 09:32:58;;;;;;;;;3.67;2.67;;;;;8.92;63.72;100085.16;5054945;28;45608;-81
2022/01/09 09:35:24;;;;;;;;;5.00;2.67;;;;;8.74;63.30;100055.75;5059435;28;45528;-83
2022/01/09 09:37:49;;;;;;;;;1.67;1.00;;;;;8.86;64.18;100075.06;5058109;28;45935;-82
2022/01/09 09:40:18;;;;;;;;;4.33;2.00;;;;;8.77;63.32;100071.72;5051581;28;45691;-81
2022/01/09 09:42:44;;;;;;;;;1.00;1.00;;;;;8.71;64.51;100078.06;5060477;28;46613;-81
2022/01/09 09:45:10;;;;;;;;;1.33;0.00;;;;;8.60;63.45;100065.88;5059533;28;45662;-82
2022/01/09 09:47:38;;;;;;;;;2.00;2.00;;;;;8.58;63.54;100078.94;5051668;28;45655;-82
2022/01/09 09:50:06;;;;;;;;;1.00;1.00;;;;;8.50;64.39;100076.41;5034291;28;46995;-80
2022/01/09 09:52:31;;;;;;;;;3.00;1.00;;;;;8.49;64.29;100089.25;5040361;28;48389;-82
2022/01/09 09:54:57;;;;;;;;;1.00;1.00;;;;;8.49;66.07;100089.25;5041770;28;45458;-75
2022/01/09 09:57:24;;;;;;;;;1.00;1.00;;;;;8.50;66.70;100098.25;5051654;28;45564;-74
2022/01/09 09:59:49;;;;;;;;;2.33;1.67;;;;;8.52;65.75;100097.00;5051712;28;45544;-75
2022/01/09 10:02:17;;;;;;;;;2.33;2.00;;;;;8.53;65.18;100093.19;5028806;28;47678;-81
2022/01/09 10:05:06;;;;;;;;;1.00;1.00;;;;;8.50;65.13;100090.06;5034065;28;45511;-83
2022/01/09 10:07:32;;;;;;;;;1.67;1.67;;;;;8.49;64.29;100091.97;5033158;28;45530;-82
2022/01/09 10:10:01;;;;;;;;;1.00;1.00;;;;;8.47;64.26;100103.09;5041890;28;45427;-76
2022/01/09 10:12:30;;;;;;;;;1.33;1.00;;;;;8.43;64.04;100082.69;5056091;28;45850;-81
2022/01/09 10:15:00;;;;;;;;;0.33;0.33;;;;;8.37;64.01;100085.41;5049584;28;45498;-75
2022/01/09 10:17:27;;;;;;;;;2.00;0.00;;;;;8.29;64.25;100094.66;5053029;28;45721;-75
2022/01/09 10:19:57;;;;;;;;;3.00;1.00;;;;;8.21;65.29;100090.25;5047312;28;45823;-76
2022/01/09 10:22:41;;;;;;;;;1.33;1.33;;;;;8.16;64.51;100095.50;5052267;28;45879;-79
2022/01/09 10:25:32;;;;;;;;;1.00;1.00;;;;;8.12;64.92;100092.34;5037581;28;45430;-79
2022/01/09 10:28:07;;;;;;;;;3.33;1.00;;;;;8.05;64.89;100101.56;5056527;28;45714;-82
2022/01/09 10:30:36;;;;;;;;;2.67;2.00;;;;;8.05;65.77;100101.56;5059942;28;45722;-77
2022/01/09 10:33:07;;;;;;;;;0.67;0.33;;;;;8.09;64.60;100109.16;5053307;28;46304;-76
2022/01/09 10:35:33;;;;;;;;;0.00;0.00;;;;;8.17;65.78;100116.28;5060547;28;45608;-81
2022/01/09 10:38:12;;;;;;;;;1.00;0.00;;;;;8.12;63.98;100121.56;5065009;28;45334;-75
2022/01/09 10:40:39;;;;;;;;;0.67;0.67;;;;;8.07;65.50;100111.25;5059510;28;46033;-77
2022/01/09 10:43:33;;;;;;;;;1.00;1.00;;;;;7.90;67.36;100119.00;5051279;28;46354;-75
2022/01/09 10:45:59;;;;;;;;;2.67;2.00;;;;;7.73;68.66;100131.34;5056934;28;45440;-81
2022/01/09 10:48:37;;;;;;;;;3.00;1.67;;;;;7.63;69.70;100136.34;5057671;28;45551;-74
2022/01/09 10:51:04;;;;;;;;;1.00;1.00;;;;;7.48;66.98;100117.41;5058354;28;45777;-75
2022/01/09 10:53:40;;;;;;;;;3.00;2.00;;;;;7.45;67.71;100129.56;5056459;28;45520;-76
2022/01/09 10:56:25;;;;;;;;;2.00;2.00;;;;;7.38;68.00;100145.03;5053156;28;45875;-75
2022/01/09 10:58:54;;;;;;;;;4.33;4.33;;;;;7.37;67.33;100144.22;5068515;28;45901;-74
2022/01/09 11:01:23;;;;;;;;;12.33;10.00;;;;;7.37;67.11;100135.19;5071062;28;45985;-82
2022/01/09 11:03:59;;;;;;;;;2.33;2.33;;;;;7.38;67.73;100142.31;5070169;28;46333;-73
2022/01/09 11:06:28;;;;;;;;;5.00;3.00;;;;;7.38;66.61;100135.00;5044385;28;45831;-81
2022/01/09 11:08:56;;;;;;;;;2.67;2.67;;;;;7.39;67.40;100147.56;5062231;28;45261;-83
2022/01/09 11:11:33;;;;;;;;;1.00;1.00;;;;;7.40;66.95;100143.81;5074377;28;45491;-85
2022/01/09 11:14:02;;;;;;;;;2.33;2.33;;;;;7.42;68.03;100149.94;5068235;28;45469;-76
2022/01/09 11:16:37;;;;;;;;;3.00;2.00;;;;;7.46;68.34;100125.78;5068504;28;45436;-81
2022/01/09 11:19:13;;;;;;;;;2.00;2.00;;;;;7.65;68.38;100121.47;5021133;28;45485;-81
2022/01/09 11:21:43;;;;;;;;;3.67;2.67;;;;;7.85;70.10;100121.50;5049644;28;45884;-75
2022/01/09 11:24:46;;;;;;;;;7.00;3.00;;;;;8.05;69.50;100118.78;5058542;28;45929;-81
2022/01/09 11:27:23;;;;;;;;;5.33;2.00;;;;;8.34;66.40;100122.22;5047485;28;45579;-81
2022/01/09 11:29:51;;;;;;;;;5.00;5.00;;;;;8.62;66.36;100134.84;5054185;28;45703;-81
2022/01/09 11:32:42;;;;;;;;;5.00;3.00;;;;;8.84;66.92;100128.06;5060443;28;45433;-80
2022/01/09 11:35:46;;;;;;;;;4.00;3.00;;;;;9.16;66.50;100135.56;5064710;28;46565;-81
2022/01/09 11:38:48;;;;;;;;;5.00;3.00;;;;;9.36;64.42;100136.38;5050485;28;45382;-80
2022/01/09 11:41:24;;;;;;;;;5.67;3.00;;;;;9.56;63.09;100135.44;5050854;28;45811;-75
2022/01/09 11:44:05;;;;;;;;;3.00;2.00;;;;;9.64;62.65;100137.94;5063118;28;45540;-75
2022/01/09 11:46:52;;;;;;;;;1.33;1.33;;;;;9.64;63.28;100139.81;5043311;28;45481;-76
2022/01/09 11:49:20;;;;;;;;;3.00;3.00;;;;;9.62;63.77;100150.16;5054508;28;45455;-75
2022/01/09 11:51:51;;;;;;;;;2.33;1.00;;;;;9.58;64.61;100152.50;5066797;28;45770;-80
2022/01/09 11:54:19;;;;;;;;;3.00;2.33;;;;;9.55;64.02;100150.22;5058389;28;45441;-83